Bellinzona, Switzerland
Current Conditions -  °F | °C
As of 4:50 AM on Saturday 25 Oct 2014 (Local Time) from LSZL Reporting Station
Clear Clear  
Wind Chill: 39°   Ceiling: Unl
Heat Index: 39°   Visibility: 6mi
Dew Point: 39°   Wind: 1mph
Humidity: 100%   Direction: NA
Pressure: 30.09"   Gusts: NA
Location:  46.2°N, 9.02°E
Report Text: LSZL 250250Z AUTO VRB01KT 9999NDV NCD 04/04 Q1019 RMK BLU
Loading
Personal Weather Stations






























Interactive Weather Map
Tropical Storm Tracking
New forecast layout! Learn more

10-Day Weather Forecast

Advertisements
Track Severe Weather on mobile